sensor_id;sensor_type;location;lat;lon;timestamp;temperature;humidity
20155;DHT22;10238;49.556;10.956;2023-01-16T00:01:39;0.70;99.90
20155;DHT22;10238;49.556;10.956;2023-01-16T00:04:29;0.70;99.90
20155;DHT22;10238;49.556;10.956;2023-01-16T00:07:17;0.60;99.90
20155;DHT22;10238;49.556;10.956;2023-01-16T00:10:05;0.80;99.90
20155;DHT22;10238;49.556;10.956;2023-01-16T00:12:54;0.50;99.90
20155;DHT22;10238;49.556;10.956;2023-01-16T00:15:44;0.50;99.90
20155;DHT22;10238;49.556;10.956;2023-01-16T00:18:32;0.40;99.90
20155;DHT22;10238;49.556;10.956;2023-01-16T00:21:23;0.50;99.90
20155;DHT22;10238;49.556;10.956;2023-01-16T00:24:13;0.50;99.90
20155;DHT22;10238;49.556;10.956;2023-01-16T00:27:00;0.40;99.90
20155;DHT22;10238;49.556;10.956;2023-01-16T00:29:49;0.30;99.90
20155;DHT22;10238;49.556;10.956;2023-01-16T00:32:36;0.30;99.90
20155;DHT22;10238;49.556;10.956;2023-01-16T00:35:24;0.40;99.90
20155;DHT22;10238;49.556;10.956;2023-01-16T00:38:14;0.30;99.90
20155;DHT22;10238;49.556;10.956;2023-01-16T00:41:01;0.30;99.90
20155;DHT22;10238;49.556;10.956;2023-01-16T00:43:49;0.40;99.90
20155;DHT22;10238;49.556;10.956;2023-01-16T00:46:38;0.30;99.90
20155;DHT22;10238;49.556;10.956;2023-01-16T00:49:26;0.50;99.90
20155;DHT22;10238;49.556;10.956;2023-01-16T00:52:14;0.60;99.90
20155;DHT22;10238;49.556;10.956;2023-01-16T00:55:03;0.70;99.90
20155;DHT22;10238;49.556;10.956;2023-01-16T00:57:52;0.70;99.90
20155;DHT22;10238;49.556;10.956;2023-01-16T01:00:39;0.80;99.90
20155;DHT22;10238;49.556;10.956;2023-01-16T01:03:29;0.80;99.90
20155;DHT22;10238;49.556;10.956;2023-01-16T01:06:17;0.60;99.90
20155;DHT22;10238;49.556;10.956;2023-01-16T01:09:07;0.60;99.90
20155;DHT22;10238;49.556;10.956;2023-01-16T01:11:58;0.50;99.90
20155;DHT22;10238;49.556;10.956;2023-01-16T01:14:46;0.50;99.90
20155;DHT22;10238;49.556;10.956;2023-01-16T01:17:33;0.50;99.90
20155;DHT22;10238;49.556;10.956;2023-01-16T01:20:21;0.30;99.90
20155;DHT22;10238;49.556;10.956;2023-01-16T01:23:09;0.40;99.90
20155;DHT22;10238;49.556;10.956;2023-01-16T01:25:57;0.20;99.90
20155;DHT22;10238;49.556;10.956;2023-01-16T01:28:46;0.10;99.90
20155;DHT22;10238;49.556;10.956;2023-01-16T01:31:34;0.20;99.90
20155;DHT22;10238;49.556;10.956;2023-01-16T01:34:22;0.40;99.90
20155;DHT22;10238;49.556;10.956;2023-01-16T01:37:10;0.20;99.90
20155;DHT22;10238;49.556;10.956;2023-01-16T01:39:58;0.20;99.90
20155;DHT22;10238;49.556;10.956;2023-01-16T01:42:45;0.20;99.90
20155;DHT22;10238;49.556;10.956;2023-01-16T01:45:39;0.30;99.90
20155;DHT22;10238;49.556;10.956;2023-01-16T01:48:35;0.30;99.90
20155;DHT22;10238;49.556;10.956;2023-01-16T01:51:30;0.30;99.90
20155;DHT22;10238;49.556;10.956;2023-01-16T01:54:25;0.30;99.90
20155;DHT22;10238;49.556;10.956;2023-01-16T01:57:17;0.40;99.90
20155;DHT22;10238;49.556;10.956;2023-01-16T02:00:14;0.40;99.90
20155;DHT22;10238;49.556;10.956;2023-01-16T02:03:11;0.40;99.90
20155;DHT22;10238;49.556;10.956;2023-01-16T02:06:05;0.40;99.90
20155;DHT22;10238;49.556;10.956;2023-01-16T02:08:57;0.40;99.90
20155;DHT22;10238;49.556;10.956;2023-01-16T02:11:49;0.60;99.90
20155;DHT22;10238;49.556;10.956;2023-01-16T02:14:41;0.70;99.90
20155;DHT22;10238;49.556;10.956;2023-01-16T02:17:32;0.90;99.90
20155;DHT22;10238;49.556;10.956;2023-01-16T02:20:48;0.90;99.90
20155;DHT22;10238;49.556;10.956;2023-01-16T02:27:38;0.90;99.90
20155;DHT22;10238;49.556;10.956;2023-01-16T02:31:04;1.10;99.90
20155;DHT22;10238;49.556;10.956;2023-01-16T02:34:09;1.20;99.90
20155;DHT22;10238;49.556;10.956;2023-01-16T02:37:14;1.30;99.90
20155;DHT22;10238;49.556;10.956;2023-01-16T02:40:22;1.40;99.90
20155;DHT22;10238;49.556;10.956;2023-01-16T02:43:25;1.50;99.90
20155;DHT22;10238;49.556;10.956;2023-01-16T02:46:26;1.30;99.90
20155;DHT22;10238;49.556;10.956;2023-01-16T02:49:21;1.40;99.90
20155;DHT22;10238;49.556;10.956;2023-01-16T02:52:19;1.40;99.90
20155;DHT22;10238;49.556;10.956;2023-01-16T02:55:16;1.40;99.90
20155;DHT22;10238;49.556;10.956;2023-01-16T02:58:12;1.50;99.90
20155;DHT22;10238;49.556;10.956;2023-01-16T03:01:01;1.60;99.90
20155;DHT22;10238;49.556;10.956;2023-01-16T03:04:03;1.60;99.90
20155;DHT22;10238;49.556;10.956;2023-01-16T03:07:01;1.60;99.90
20155;DHT22;10238;49.556;10.956;2023-01-16T03:10:09;1.80;99.90
20155;DHT22;10238;49.556;10.956;2023-01-16T03:13:18;1.70;99.90
20155;DHT22;10238;49.556;10.956;2023-01-16T03:16:25;1.70;99.90
20155;DHT22;10238;49.556;10.956;2023-01-16T03:19:26;1.90;99.90
20155;DHT22;10238;49.556;10.956;2023-01-16T03:22:27;1.70;99.90
20155;DHT22;10238;49.556;10.956;2023-01-16T03:25:35;1.60;99.90
20155;DHT22;10238;49.556;10.956;2023-01-16T03:28:36;1.50;99.90
20155;DHT22;10238;49.556;10.956;2023-01-16T03:31:39;1.60;99.90
20155;DHT22;10238;49.556;10.956;2023-01-16T03:34:38;1.60;99.90
20155;DHT22;10238;49.556;10.956;2023-01-16T03:37:33;1.60;99.90
20155;DHT22;10238;49.556;10.956;2023-01-16T03:40:29;1.50;99.90
20155;DHT22;10238;49.556;10.956;2023-01-16T03:43:23;1.60;99.90
20155;DHT22;10238;49.556;10.956;2023-01-16T03:46:17;1.60;99.90
20155;DHT22;10238;49.556;10.956;2023-01-16T03:49:15;1.50;99.90
20155;DHT22;10238;49.556;10.956;2023-01-16T03:52:10;1.40;99.90
20155;DHT22;10238;49.556;10.956;2023-01-16T03:55:05;1.30;99.90
20155;DHT22;10238;49.556;10.956;2023-01-16T03:58:02;1.20;99.90
20155;DHT22;10238;49.556;10.956;2023-01-16T04:00:58;1.20;99.90
20155;DHT22;10238;49.556;10.956;2023-01-16T04:04:00;1.40;99.90
20155;DHT22;10238;49.556;10.956;2023-01-16T04:06:54;1.30;99.90
20155;DHT22;10238;49.556;10.956;2023-01-16T04:09:50;1.20;99.90
20155;DHT22;10238;49.556;10.956;2023-01-16T04:12:45;1.10;99.90
20155;DHT22;10238;49.556;10.956;2023-01-16T04:15:39;1.20;99.90
20155;DHT22;10238;49.556;10.956;2023-01-16T04:18:32;1.30;99.90
20155;DHT22;10238;49.556;10.956;2023-01-16T04:21:25;1.00;99.90
20155;DHT22;10238;49.556;10.956;2023-01-16T04:24:15;1.00;99.90
20155;DHT22;10238;49.556;10.956;2023-01-16T04:27:05;1.00;99.90
20155;DHT22;10238;49.556;10.956;2023-01-16T04:29:56;0.90;99.90
20155;DHT22;10238;49.556;10.956;2023-01-16T04:32:46;0.90;99.90
20155;DHT22;10238;49.556;10.956;2023-01-16T04:35:34;1.00;99.90
20155;DHT22;10238;49.556;10.956;2023-01-16T04:38:22;0.90;99.90
20155;DHT22;10238;49.556;10.956;2023-01-16T04:41:09;1.00;99.90
20155;DHT22;10238;49.556;10.956;2023-01-16T04:43:58;1.00;99.90
20155;DHT22;10238;49.556;10.956;2023-01-16T04:46:46;1.10;99.90
20155;DHT22;10238;49.556;10.956;2023-01-16T04:49:34;0.90;99.90
20155;DHT22;10238;49.556;10.956;2023-01-16T04:52:22;0.90;99.90
20155;DHT22;10238;49.556;10.956;2023-01-16T04:55:10;1.00;99.90
20155;DHT22;10238;49.556;10.956;2023-01-16T04:57:58;0.70;99.90
20155;DHT22;10238;49.556;10.956;2023-01-16T05:00:46;0.50;99.90
20155;DHT22;10238;49.556;10.956;2023-01-16T05:03:37;0.60;99.90
20155;DHT22;10238;49.556;10.956;2023-01-16T05:06:25;0.50;99.90
20155;DHT22;10238;49.556;10.956;2023-01-16T05:09:12;0.60;99.90
20155;DHT22;10238;49.556;10.956;2023-01-16T05:12:03;0.60;99.90
20155;DHT22;10238;49.556;10.956;2023-01-16T05:14:51;0.60;99.90
20155;DHT22;10238;49.556;10.956;2023-01-16T05:17:40;0.50;99.90
20155;DHT22;10238;49.556;10.956;2023-01-16T05:20:28;0.40;99.90
20155;DHT22;10238;49.556;10.956;2023-01-16T05:23:18;0.40;99.90
20155;DHT22;10238;49.556;10.956;2023-01-16T05:26:07;0.20;99.90
20155;DHT22;10238;49.556;10.956;2023-01-16T05:28:54;0.20;99.90
20155;DHT22;10238;49.556;10.956;2023-01-16T05:31:42;0.10;99.90
20155;DHT22;10238;49.556;10.956;2023-01-16T05:34:30;0.10;99.90
20155;DHT22;10238;49.556;10.956;2023-01-16T05:37:18;0.10;99.90
20155;DHT22;10238;49.556;10.956;2023-01-16T05:40:07;0.10;99.90
20155;DHT22;10238;49.556;10.956;2023-01-16T05:42:55;0.10;99.90
20155;DHT22;10238;49.556;10.956;2023-01-16T05:45:42;0.00;99.90
20155;DHT22;10238;49.556;10.956;2023-01-16T05:48:30;0.00;99.90
20155;DHT22;10238;49.556;10.956;2023-01-16T05:51:19;0.00;99.90
20155;DHT22;10238;49.556;10.956;2023-01-16T05:54:10;-0.20;99.90
20155;DHT22;10238;49.556;10.956;2023-01-16T05:56:58;0.00;99.90
20155;DHT22;10238;49.556;10.956;2023-01-16T05:59:48;-0.10;99.90
20155;DHT22;10238;49.556;10.956;2023-01-16T06:02:35;0.00;99.90
20155;DHT22;10238;49.556;10.956;2023-01-16T06:05:23;0.00;99.90
20155;DHT22;10238;49.556;10.956;2023-01-16T06:08:12;0.20;99.90
20155;DHT22;10238;49.556;10.956;2023-01-16T06:11:00;0.10;99.90
20155;DHT22;10238;49.556;10.956;2023-01-16T06:13:48;0.00;99.90
20155;DHT22;10238;49.556;10.956;2023-01-16T06:16:36;0.20;99.90
20155;DHT22;10238;49.556;10.956;2023-01-16T06:19:23;0.10;99.90
20155;DHT22;10238;49.556;10.956;2023-01-16T06:22:14;-0.10;99.90
20155;DHT22;10238;49.556;10.956;2023-01-16T06:25:04;-0.20;99.90
20155;DHT22;10238;49.556;10.956;2023-01-16T06:27:52;-0.30;99.90
20155;DHT22;10238;49.556;10.956;2023-01-16T06:30:41;-0.40;99.90
20155;DHT22;10238;49.556;10.956;2023-01-16T06:33:29;-0.70;99.90
20155;DHT22;10238;49.556;10.956;2023-01-16T06:36:16;-0.40;99.90
20155;DHT22;10238;49.556;10.956;2023-01-16T06:39:04;-0.50;99.90
20155;DHT22;10238;49.556;10.956;2023-01-16T06:41:52;-0.40;99.90
20155;DHT22;10238;49.556;10.956;2023-01-16T06:44:40;-0.50;99.90
20155;DHT22;10238;49.556;10.956;2023-01-16T06:47:28;-0.40;99.90
20155;DHT22;10238;49.556;10.956;2023-01-16T06:50:17;-0.10;99.90
20155;DHT22;10238;49.556;10.956;2023-01-16T06:53:04;-0.40;99.90
20155;DHT22;10238;49.556;10.956;2023-01-16T06:55:52;-0.40;99.90
20155;DHT22;10238;49.556;10.956;2023-01-16T06:58:41;-0.20;99.90
20155;DHT22;10238;49.556;10.956;2023-01-16T07:01:29;-0.40;99.90
20155;DHT22;10238;49.556;10.956;2023-01-16T07:04:16;-0.40;99.90
20155;DHT22;10238;49.556;10.956;2023-01-16T07:07:04;-0.40;99.90
20155;DHT22;10238;49.556;10.956;2023-01-16T07:09:51;-0.40;99.90
20155;DHT22;10238;49.556;10.956;2023-01-16T07:12:39;-0.30;99.90
20155;DHT22;10238;49.556;10.956;2023-01-16T07:15:29;-0.40;99.90
20155;DHT22;10238;49.556;10.956;2023-01-16T07:18:34;-0.30;99.90
20155;DHT22;10238;49.556;10.956;2023-01-16T07:21:40;-0.40;99.90
20155;DHT22;10238;49.556;10.956;2023-01-16T07:24:46;-0.20;99.90
20155;DHT22;10238;49.556;10.956;2023-01-16T07:27:34;-0.20;99.90
20155;DHT22;10238;49.556;10.956;2023-01-16T07:30:21;-0.20;99.90
20155;DHT22;10238;49.556;10.956;2023-01-16T07:33:11;-0.20;99.90
20155;DHT22;10238;49.556;10.956;2023-01-16T07:35:59;-0.20;99.90
20155;DHT22;10238;49.556;10.956;2023-01-16T07:38:47;-0.20;99.90
20155;DHT22;10238;49.556;10.956;2023-01-16T07:41:34;-0.10;99.90
20155;DHT22;10238;49.556;10.956;2023-01-16T07:44:26;-0.10;99.90
20155;DHT22;10238;49.556;10.956;2023-01-16T07:47:16;-0.20;99.90
20155;DHT22;10238;49.556;10.956;2023-01-16T07:50:06;-0.20;99.90
20155;DHT22;10238;49.556;10.956;2023-01-16T07:52:55;-0.20;99.90
20155;DHT22;10238;49.556;10.956;2023-01-16T07:55:43;-0.20;99.90
20155;DHT22;10238;49.556;10.956;2023-01-16T07:58:32;-0.20;99.90
20155;DHT22;10238;49.556;10.956;2023-01-16T08:01:19;0.20;99.90
20155;DHT22;10238;49.556;10.956;2023-01-16T08:04:07;-0.10;99.90
20155;DHT22;10238;49.556;10.956;2023-01-16T08:06:56;0.30;99.90
20155;DHT22;10238;49.556;10.956;2023-01-16T08:09:43;0.30;99.90
20155;DHT22;10238;49.556;10.956;2023-01-16T08:12:30;0.50;99.90
20155;DHT22;10238;49.556;10.956;2023-01-16T08:15:18;0.80;99.90
20155;DHT22;10238;49.556;10.956;2023-01-16T08:18:05;0.60;99.90
20155;DHT22;10238;49.556;10.956;2023-01-16T08:20:53;0.80;99.90
20155;DHT22;10238;49.556;10.956;2023-01-16T08:23:42;1.00;99.90
20155;DHT22;10238;49.556;10.956;2023-01-16T08:26:29;1.10;99.90
20155;DHT22;10238;49.556;10.956;2023-01-16T08:29:18;1.30;99.90
20155;DHT22;10238;49.556;10.956;2023-01-16T08:32:05;1.10;99.90
20155;DHT22;10238;49.556;10.956;2023-01-16T08:34:53;1.20;99.90
20155;DHT22;10238;49.556;10.956;2023-01-16T08:37:48;1.20;99.90
20155;DHT22;10238;49.556;10.956;2023-01-16T08:40:37;1.30;99.90
20155;DHT22;10238;49.556;10.956;2023-01-16T08:43:25;1.40;99.90
20155;DHT22;10238;49.556;10.956;2023-01-16T08:46:41;1.50;99.90
20155;DHT22;10238;49.556;10.956;2023-01-16T08:49:49;1.80;99.90
20155;DHT22;10238;49.556;10.956;2023-01-16T08:52:55;1.90;99.90
20155;DHT22;10238;49.556;10.956;2023-01-16T08:55:44;1.80;99.90
20155;DHT22;10238;49.556;10.956;2023-01-16T08:58:31;1.90;99.90
20155;DHT22;10238;49.556;10.956;2023-01-16T09:01:19;2.00;99.90
20155;DHT22;10238;49.556;10.956;2023-01-16T09:04:07;2.10;99.90
20155;DHT22;10238;49.556;10.956;2023-01-16T09:06:55;2.10;99.90
20155;DHT22;10238;49.556;10.956;2023-01-16T09:09:42;2.20;99.90
20155;DHT22;10238;49.556;10.956;2023-01-16T09:12:31;2.80;99.90
20155;DHT22;10238;49.556;10.956;2023-01-16T09:15:36;2.40;99.90
20155;DHT22;10238;49.556;10.956;2023-01-16T09:18:24;2.60;99.90
20155;DHT22;10238;49.556;10.956;2023-01-16T09:21:12;2.60;99.90
20155;DHT22;10238;49.556;10.956;2023-01-16T09:23:59;2.70;99.90
20155;DHT22;10238;49.556;10.956;2023-01-16T09:26:48;2.60;99.90
20155;DHT22;10238;49.556;10.956;2023-01-16T09:29:37;3.00;99.90
20155;DHT22;10238;49.556;10.956;2023-01-16T09:32:25;3.00;99.90
20155;DHT22;10238;49.556;10.956;2023-01-16T09:35:14;3.10;99.90
20155;DHT22;10238;49.556;10.956;2023-01-16T09:38:02;3.30;99.90
20155;DHT22;10238;49.556;10.956;2023-01-16T09:40:53;3.50;99.90
20155;DHT22;10238;49.556;10.956;2023-01-16T09:43:47;3.60;99.90
20155;DHT22;10238;49.556;10.956;2023-01-16T09:46:40;3.70;99.90
20155;DHT22;10238;49.556;10.956;2023-01-16T09:49:35;3.90;99.90
20155;DHT22;10238;49.556;10.956;2023-01-16T09:52:33;3.90;99.90
20155;DHT22;10238;49.556;10.956;2023-01-16T09:55:56;4.10;99.90
20155;DHT22;10238;49.556;10.956;2023-01-16T09:59:14;4.10;99.90
20155;DHT22;10238;49.556;10.956;2023-01-16T10:02:20;4.40;99.90
20155;DHT22;10238;49.556;10.956;2023-01-16T10:05:11;4.50;99.90
20155;DHT22;10238;49.556;10.956;2023-01-16T10:08:05;4.80;99.90
20155;DHT22;10238;49.556;10.956;2023-01-16T10:11:09;4.60;99.90
20155;DHT22;10238;49.556;10.956;2023-01-16T10:14:33;4.90;99.90
20155;DHT22;10238;49.556;10.956;2023-01-16T10:17:37;4.70;99.90
20155;DHT22;10238;49.556;10.956;2023-01-16T10:20:51;4.80;99.90
20155;DHT22;10238;49.556;10.956;2023-01-16T10:23:52;5.00;99.90
20155;DHT22;10238;49.556;10.956;2023-01-16T10:26:55;5.10;99.90
20155;DHT22;10238;49.556;10.956;2023-01-16T10:29:49;5.20;99.90
20155;DHT22;10238;49.556;10.956;2023-01-16T10:32:46;5.30;99.90
20155;DHT22;10238;49.556;10.956;2023-01-16T10:35:41;5.20;99.90
20155;DHT22;10238;49.556;10.956;2023-01-16T10:38:35;5.30;99.90
20155;DHT22;10238;49.556;10.956;2023-01-16T10:41:33;5.40;99.90
20155;DHT22;10238;49.556;10.956;2023-01-16T10:44:49;5.50;99.90
20155;DHT22;10238;49.556;10.956;2023-01-16T10:48:03;5.10;99.90
20155;DHT22;10238;49.556;10.956;2023-01-16T10:51:09;4.90;99.90
20155;DHT22;10238;49.556;10.956;2023-01-16T10:53:56;5.00;99.90
20155;DHT22;10238;49.556;10.956;2023-01-16T10:56:45;5.10;99.90
20155;DHT22;10238;49.556;10.956;2023-01-16T10:59:33;5.10;99.90
20155;DHT22;10238;49.556;10.956;2023-01-16T11:02:29;5.30;99.90
20155;DHT22;10238;49.556;10.956;2023-01-16T11:05:26;5.20;99.90
20155;DHT22;10238;49.556;10.956;2023-01-16T11:08:16;5.30;99.90
20155;DHT22;10238;49.556;10.956;2023-01-16T11:11:05;5.50;99.90
20155;DHT22;10238;49.556;10.956;2023-01-16T11:14:20;5.50;99.90
20155;DHT22;10238;49.556;10.956;2023-01-16T11:17:29;5.50;99.90
20155;DHT22;10238;49.556;10.956;2023-01-16T11:20:40;5.70;99.90
20155;DHT22;10238;49.556;10.956;2023-01-16T11:23:37;5.70;99.90
20155;DHT22;10238;49.556;10.956;2023-01-16T11:26:27;5.60;99.90
20155;DHT22;10238;49.556;10.956;2023-01-16T11:29:16;5.80;99.90
20155;DHT22;10238;49.556;10.956;2023-01-16T11:32:06;5.80;99.90
20155;DHT22;10238;49.556;10.956;2023-01-16T11:34:59;5.80;99.90
20155;DHT22;10238;49.556;10.956;2023-01-16T11:37:50;5.70;99.90
20155;DHT22;10238;49.556;10.956;2023-01-16T11:40:43;5.90;99.90
20155;DHT22;10238;49.556;10.956;2023-01-16T11:43:32;5.70;99.90
20155;DHT22;10238;49.556;10.956;2023-01-16T11:46:38;5.60;99.90
20155;DHT22;10238;49.556;10.956;2023-01-16T11:49:35;5.70;99.90
20155;DHT22;10238;49.556;10.956;2023-01-16T11:52:25;5.40;99.90
20155;DHT22;10238;49.556;10.956;2023-01-16T11:55:16;5.50;99.90
20155;DHT22;10238;49.556;10.956;2023-01-16T11:58:08;5.40;99.90
20155;DHT22;10238;49.556;10.956;2023-01-16T12:01:09;5.50;99.90
20155;DHT22;10238;49.556;10.956;2023-01-16T12:04:07;5.60;99.90
20155;DHT22;10238;49.556;10.956;2023-01-16T12:07:11;5.50;99.90
20155;DHT22;10238;49.556;10.956;2023-01-16T12:10:19;5.50;99.90
20155;DHT22;10238;49.556;10.956;2023-01-16T12:13:26;5.50;99.90
20155;DHT22;10238;49.556;10.956;2023-01-16T12:16:52;5.30;99.90
20155;DHT22;10238;49.556;10.956;2023-01-16T12:20:04;5.40;99.90
20155;DHT22;10238;49.556;10.956;2023-01-16T12:23:19;5.40;99.90
20155;DHT22;10238;49.556;10.956;2023-01-16T12:26:49;5.30;99.90
20155;DHT22;10238;49.556;10.956;2023-01-16T12:29:56;5.50;99.90
20155;DHT22;10238;49.556;10.956;2023-01-16T12:33:05;5.40;99.90
20155;DHT22;10238;49.556;10.956;2023-01-16T12:36:06;5.40;99.90
20155;DHT22;10238;49.556;10.956;2023-01-16T12:39:18;5.50;99.90
20155;DHT22;10238;49.556;10.956;2023-01-16T12:42:25;5.50;99.90
20155;DHT22;10238;49.556;10.956;2023-01-16T12:45:44;5.60;99.90
20155;DHT22;10238;49.556;10.956;2023-01-16T12:48:52;5.50;99.90
20155;DHT22;10238;49.556;10.956;2023-01-16T12:52:04;5.50;99.90
20155;DHT22;10238;49.556;10.956;2023-01-16T12:55:17;5.50;99.90
20155;DHT22;10238;49.556;10.956;2023-01-16T12:58:32;5.50;99.90
20155;DHT22;10238;49.556;10.956;2023-01-16T13:01:25;5.60;99.90
20155;DHT22;10238;49.556;10.956;2023-01-16T13:04:20;5.70;99.90
20155;DHT22;10238;49.556;10.956;2023-01-16T13:07:14;5.60;99.90
20155;DHT22;10238;49.556;10.956;2023-01-16T13:10:10;5.60;99.90
20155;DHT22;10238;49.556;10.956;2023-01-16T13:13:23;5.60;99.90
20155;DHT22;10238;49.556;10.956;2023-01-16T13:16:20;5.60;99.90
20155;DHT22;10238;49.556;10.956;2023-01-16T13:19:15;5.60;99.90
20155;DHT22;10238;49.556;10.956;2023-01-16T13:22:16;5.60;99.90
20155;DHT22;10238;49.556;10.956;2023-01-16T13:25:17;5.40;99.90
20155;DHT22;10238;49.556;10.956;2023-01-16T13:28:17;5.60;99.90
20155;DHT22;10238;49.556;10.956;2023-01-16T13:31:19;5.60;99.90
20155;DHT22;10238;49.556;10.956;2023-01-16T13:34:17;5.70;99.90
20155;DHT22;10238;49.556;10.956;2023-01-16T13:37:24;5.60;99.90
20155;DHT22;10238;49.556;10.956;2023-01-16T13:40:50;5.60;99.90
20155;DHT22;10238;49.556;10.956;2023-01-16T13:43:57;5.60;99.90
20155;DHT22;10238;49.556;10.956;2023-01-16T13:47:11;5.60;99.90
20155;DHT22;10238;49.556;10.956;2023-01-16T13:50:06;5.70;99.90
20155;DHT22;10238;49.556;10.956;2023-01-16T13:53:06;5.50;99.90
20155;DHT22;10238;49.556;10.956;2023-01-16T13:56:07;5.40;99.90
20155;DHT22;10238;49.556;10.956;2023-01-16T13:58:59;5.40;99.90
20155;DHT22;10238;49.556;10.956;2023-01-16T14:01:56;5.30;99.90
20155;DHT22;10238;49.556;10.956;2023-01-16T14:08:49;5.40;99.90
20155;DHT22;10238;49.556;10.956;2023-01-16T14:11:59;5.30;99.90
20155;DHT22;10238;49.556;10.956;2023-01-16T14:15:13;5.40;99.90
20155;DHT22;10238;49.556;10.956;2023-01-16T14:18:35;5.20;99.90
20155;DHT22;10238;49.556;10.956;2023-01-16T14:21:27;5.20;99.90
20155;DHT22;10238;49.556;10.956;2023-01-16T14:24:28;5.20;99.90
20155;DHT22;10238;49.556;10.956;2023-01-16T14:27:29;5.20;99.90
20155;DHT22;10238;49.556;10.956;2023-01-16T14:30:22;5.10;99.90
20155;DHT22;10238;49.556;10.956;2023-01-16T14:33:14;5.50;99.90
20155;DHT22;10238;49.556;10.956;2023-01-16T14:36:04;5.20;99.90
20155;DHT22;10238;49.556;10.956;2023-01-16T14:39:01;5.10;99.90
20155;DHT22;10238;49.556;10.956;2023-01-16T14:41:50;5.40;99.90
20155;DHT22;10238;49.556;10.956;2023-01-16T14:45:29;5.60;99.90
20155;DHT22;10238;49.556;10.956;2023-01-16T14:48:37;5.20;99.90
20155;DHT22;10238;49.556;10.956;2023-01-16T14:51:54;5.20;99.90
20155;DHT22;10238;49.556;10.956;2023-01-16T14:55:10;5.20;99.90
20155;DHT22;10238;49.556;10.956;2023-01-16T14:58:01;5.10;99.90
20155;DHT22;10238;49.556;10.956;2023-01-16T15:00:55;5.30;99.90
20155;DHT22;10238;49.556;10.956;2023-01-16T15:03:59;5.20;99.90
20155;DHT22;10238;49.556;10.956;2023-01-16T15:06:52;5.20;99.90
20155;DHT22;10238;49.556;10.956;2023-01-16T15:09:45;5.40;99.90
20155;DHT22;10238;49.556;10.956;2023-01-16T15:12:39;5.30;99.90
20155;DHT22;10238;49.556;10.956;2023-01-16T15:15:30;5.30;99.90
20155;DHT22;10238;49.556;10.956;2023-01-16T15:18:19;5.30;99.90
20155;DHT22;10238;49.556;10.956;2023-01-16T15:21:24;5.30;99.90
20155;DHT22;10238;49.556;10.956;2023-01-16T15:24:30;5.50;99.90
20155;DHT22;10238;49.556;10.956;2023-01-16T15:27:22;5.30;99.90
20155;DHT22;10238;49.556;10.956;2023-01-16T15:30:17;5.30;99.90
20155;DHT22;10238;49.556;10.956;2023-01-16T15:33:21;5.40;99.90
20155;DHT22;10238;49.556;10.956;2023-01-16T15:36:32;5.40;99.90
20155;DHT22;10238;49.556;10.956;2023-01-16T15:39:24;5.20;99.90
20155;DHT22;10238;49.556;10.956;2023-01-16T15:42:16;5.30;99.90
20155;DHT22;10238;49.556;10.956;2023-01-16T15:45:27;5.10;99.90
20155;DHT22;10238;49.556;10.956;2023-01-16T15:48:39;5.10;99.90
20155;DHT22;10238;49.556;10.956;2023-01-16T15:51:33;5.00;99.90
20155;DHT22;10238;49.556;10.956;2023-01-16T15:54:21;4.90;99.90
20155;DHT22;10238;49.556;10.956;2023-01-16T15:57:14;4.90;99.90
20155;DHT22;10238;49.556;10.956;2023-01-16T16:00:21;4.90;99.90
20155;DHT22;10238;49.556;10.956;2023-01-16T16:03:13;4.80;99.90
20155;DHT22;10238;49.556;10.956;2023-01-16T16:06:08;4.90;99.90
20155;DHT22;10238;49.556;10.956;2023-01-16T16:08:59;5.00;99.90
20155;DHT22;10238;49.556;10.956;2023-01-16T16:11:49;4.80;99.90
20155;DHT22;10238;49.556;10.956;2023-01-16T16:14:43;5.00;99.90
20155;DHT22;10238;49.556;10.956;2023-01-16T16:18:00;4.90;99.90
20155;DHT22;10238;49.556;10.956;2023-01-16T16:20:50;5.00;99.90
20155;DHT22;10238;49.556;10.956;2023-01-16T16:23:40;5.00;99.90
20155;DHT22;10238;49.556;10.956;2023-01-16T16:26:28;4.90;99.90
20155;DHT22;10238;49.556;10.956;2023-01-16T16:29:21;4.80;99.90
20155;DHT22;10238;49.556;10.956;2023-01-16T16:32:13;4.70;99.90
20155;DHT22;10238;49.556;10.956;2023-01-16T16:35:02;4.80;99.90
20155;DHT22;10238;49.556;10.956;2023-01-16T16:37:51;4.70;99.90
20155;DHT22;10238;49.556;10.956;2023-01-16T16:40:39;4.80;99.90
20155;DHT22;10238;49.556;10.956;2023-01-16T16:43:42;4.90;99.90
20155;DHT22;10238;49.556;10.956;2023-01-16T16:46:33;4.70;99.90
20155;DHT22;10238;49.556;10.956;2023-01-16T16:49:30;4.70;99.90
20155;DHT22;10238;49.556;10.956;2023-01-16T16:52:23;4.50;99.90
20155;DHT22;10238;49.556;10.956;2023-01-16T16:55:29;4.60;99.90
20155;DHT22;10238;49.556;10.956;2023-01-16T16:58:19;4.60;99.90
20155;DHT22;10238;49.556;10.956;2023-01-16T17:01:11;4.60;99.90
20155;DHT22;10238;49.556;10.956;2023-01-16T17:04:02;4.60;99.90
20155;DHT22;10238;49.556;10.956;2023-01-16T17:06:52;4.50;99.90
20155;DHT22;10238;49.556;10.956;2023-01-16T17:09:40;4.70;99.90
20155;DHT22;10238;49.556;10.956;2023-01-16T17:12:29;4.70;99.90
20155;DHT22;10238;49.556;10.956;2023-01-16T17:15:16;4.80;99.90
20155;DHT22;10238;49.556;10.956;2023-01-16T17:18:04;4.80;99.90
20155;DHT22;10238;49.556;10.956;2023-01-16T17:20:53;4.30;99.90
20155;DHT22;10238;49.556;10.956;2023-01-16T17:23:41;4.30;99.90
20155;DHT22;10238;49.556;10.956;2023-01-16T17:26:32;4.30;99.90
20155;DHT22;10238;49.556;10.956;2023-01-16T17:29:26;4.30;99.90
20155;DHT22;10238;49.556;10.956;2023-01-16T17:32:25;4.40;99.90
20155;DHT22;10238;49.556;10.956;2023-01-16T17:35:16;4.20;99.90
20155;DHT22;10238;49.556;10.956;2023-01-16T17:38:07;4.10;99.90
20155;DHT22;10238;49.556;10.956;2023-01-16T17:40:57;4.20;99.90
20155;DHT22;10238;49.556;10.956;2023-01-16T17:43:45;4.40;99.90
20155;DHT22;10238;49.556;10.956;2023-01-16T17:46:51;4.30;99.90
20155;DHT22;10238;49.556;10.956;2023-01-16T17:49:39;4.40;99.90
20155;DHT22;10238;49.556;10.956;2023-01-16T17:52:40;4.50;99.90
20155;DHT22;10238;49.556;10.956;2023-01-16T17:55:28;4.40;99.90
20155;DHT22;10238;49.556;10.956;2023-01-16T17:58:35;4.20;99.90
20155;DHT22;10238;49.556;10.956;2023-01-16T18:01:38;4.30;99.90
20155;DHT22;10238;49.556;10.956;2023-01-16T18:04:28;4.30;99.90
20155;DHT22;10238;49.556;10.956;2023-01-16T18:07:19;4.20;99.90
20155;DHT22;10238;49.556;10.956;2023-01-16T18:10:07;4.40;99.90
20155;DHT22;10238;49.556;10.956;2023-01-16T18:12:55;4.30;99.90
20155;DHT22;10238;49.556;10.956;2023-01-16T18:16:03;4.50;99.90
20155;DHT22;10238;49.556;10.956;2023-01-16T18:19:09;4.50;99.90
20155;DHT22;10238;49.556;10.956;2023-01-16T18:21:58;4.60;99.90
20155;DHT22;10238;49.556;10.956;2023-01-16T18:24:51;4.30;99.90
20155;DHT22;10238;49.556;10.956;2023-01-16T18:27:39;4.40;99.90
20155;DHT22;10238;49.556;10.956;2023-01-16T18:30:28;4.50;99.90
20155;DHT22;10238;49.556;10.956;2023-01-16T18:33:15;4.60;99.90